Palito Blanco, Texas
Current Conditions -  °F | °C
As of 3:53 PM on Monday 20 Oct 2014 (Local Time) from KALI Reporting Station
Few Clouds Few Clouds  
Wind Chill: 79°   Ceiling: Unl
Heat Index: 82°   Visibility: 10mi
Dew Point: 69°   Wind: 17mph
Humidity: 72%   Direction: 80°E
Pressure: 29.95"   Gusts: NA
Location:  27.6821°N, 98.1034°W
Report Text: KALI 202053Z AUTO 08015KT 10SM FEW075 26/21 A2995 RMK AO2 SLP139 T02610206 58011
Loading
Personal Weather Stations






























Interactive Weather Map
Tropical Storm Tracking
New forecast layout! Learn more

10-Day Weather Forecast

Advertisements
Track Severe Weather on mobile